sensor_id;sensor_type;location;lat;lon;timestamp;P1;durP1;ratioP1;P2;durP2;ratioP2
51248;SDS011;39642;47.556;18.728;2023-02-26T00:00:27;5.12;;;1.73;;
51248;SDS011;39642;47.556;18.728;2023-02-26T00:02:53;6.57;;;1.80;;
51248;SDS011;39642;47.556;18.728;2023-02-26T00:05:19;5.07;;;1.60;;
51248;SDS011;39642;47.556;18.728;2023-02-26T00:07:45;4.53;;;1.62;;
51248;SDS011;39642;47.556;18.728;2023-02-26T00:10:11;6.78;;;1.90;;
51248;SDS011;39642;47.556;18.728;2023-02-26T00:12:39;6.03;;;1.70;;
51248;SDS011;39642;47.556;18.728;2023-02-26T00:15:05;5.40;;;1.62;;
51248;SDS011;39642;47.556;18.728;2023-02-26T00:17:35;5.28;;;1.70;;
51248;SDS011;39642;47.556;18.728;2023-02-26T00:20:36;6.47;;;1.73;;
51248;SDS011;39642;47.556;18.728;2023-02-26T00:23:02;5.55;;;1.73;;
51248;SDS011;39642;47.556;18.728;2023-02-26T00:25:28;4.35;;;1.60;;
51248;SDS011;39642;47.556;18.728;2023-02-26T00:27:54;4.65;;;1.60;;
51248;SDS011;39642;47.556;18.728;2023-02-26T00:30:20;6.07;;;1.70;;
51248;SDS011;39642;47.556;18.728;2023-02-26T00:32:47;5.45;;;1.70;;
51248;SDS011;39642;47.556;18.728;2023-02-26T00:35:14;6.97;;;1.67;;
51248;SDS011;39642;47.556;18.728;2023-02-26T00:43:03;4.62;;;1.58;;
51248;SDS011;39642;47.556;18.728;2023-02-26T00:45:31;6.85;;;1.83;;
51248;SDS011;39642;47.556;18.728;2023-02-26T00:51:36;5.62;;;1.75;;
51248;SDS011;39642;47.556;18.728;2023-02-26T00:56:47;6.62;;;1.90;;
51248;SDS011;39642;47.556;18.728;2023-02-26T00:59:14;6.18;;;1.70;;
51248;SDS011;39642;47.556;18.728;2023-02-26T01:01:40;7.43;;;1.90;;
51248;SDS011;39642;47.556;18.728;2023-02-26T01:04:06;6.68;;;1.90;;
51248;SDS011;39642;47.556;18.728;2023-02-26T01:06:33;7.82;;;1.95;;
51248;SDS011;39642;47.556;18.728;2023-02-26T01:11:46;5.45;;;1.70;;
51248;SDS011;39642;47.556;18.728;2023-02-26T01:14:12;4.97;;;1.60;;
51248;SDS011;39642;47.556;18.728;2023-02-26T01:16:41;5.43;;;1.73;;
51248;SDS011;39642;47.556;18.728;2023-02-26T01:21:41;5.28;;;1.77;;
51248;SDS011;39642;47.556;18.728;2023-02-26T01:24:14;5.95;;;1.80;;
51248;SDS011;39642;47.556;18.728;2023-02-26T01:26:41;6.25;;;1.80;;
51248;SDS011;39642;47.556;18.728;2023-02-26T01:29:07;6.78;;;2.00;;
51248;SDS011;39642;47.556;18.728;2023-02-26T01:31:38;6.30;;;1.85;;
51248;SDS011;39642;47.556;18.728;2023-02-26T01:37:26;5.37;;;1.87;;
51248;SDS011;39642;47.556;18.728;2023-02-26T01:40:02;3.97;;;1.50;;
51248;SDS011;39642;47.556;18.728;2023-02-26T01:42:55;5.05;;;1.60;;
51248;SDS011;39642;47.556;18.728;2023-02-26T01:45:25;6.53;;;1.80;;
51248;SDS011;39642;47.556;18.728;2023-02-26T01:48:05;5.87;;;1.90;;
51248;SDS011;39642;47.556;18.728;2023-02-26T01:50:36;6.50;;;1.95;;
51248;SDS011;39642;47.556;18.728;2023-02-26T01:55:43;6.35;;;2.05;;
51248;SDS011;39642;47.556;18.728;2023-02-26T01:58:12;5.12;;;1.70;;
51248;SDS011;39642;47.556;18.728;2023-02-26T02:00:38;7.93;;;1.98;;
51248;SDS011;39642;47.556;18.728;2023-02-26T02:03:04;5.57;;;1.70;;
51248;SDS011;39642;47.556;18.728;2023-02-26T02:05:44;6.22;;;1.95;;
51248;SDS011;39642;47.556;18.728;2023-02-26T02:08:14;5.60;;;1.80;;
51248;SDS011;39642;47.556;18.728;2023-02-26T02:10:41;5.07;;;1.80;;
51248;SDS011;39642;47.556;18.728;2023-02-26T02:13:33;6.32;;;1.98;;
51248;SDS011;39642;47.556;18.728;2023-02-26T02:18:34;5.55;;;1.90;;
51248;SDS011;39642;47.556;18.728;2023-02-26T02:31:51;6.93;;;2.08;;
51248;SDS011;39642;47.556;18.728;2023-02-26T02:34:35;6.87;;;2.00;;
51248;SDS011;39642;47.556;18.728;2023-02-26T02:39:49;5.82;;;1.80;;
51248;SDS011;39642;47.556;18.728;2023-02-26T02:42:37;5.37;;;1.83;;
51248;SDS011;39642;47.556;18.728;2023-02-26T02:45:07;6.03;;;1.87;;
51248;SDS011;39642;47.556;18.728;2023-02-26T02:47:37;5.18;;;1.85;;
51248;SDS011;39642;47.556;18.728;2023-02-26T02:50:16;6.05;;;1.80;;
51248;SDS011;39642;47.556;18.728;2023-02-26T02:55:26;6.93;;;1.90;;
51248;SDS011;39642;47.556;18.728;2023-02-26T02:58:02;5.85;;;1.83;;
51248;SDS011;39642;47.556;18.728;2023-02-26T03:00:32;6.43;;;1.90;;
51248;SDS011;39642;47.556;18.728;2023-02-26T03:03:05;5.35;;;1.80;;
51248;SDS011;39642;47.556;18.728;2023-02-26T03:05:41;4.90;;;1.70;;
51248;SDS011;39642;47.556;18.728;2023-02-26T03:08:08;6.90;;;2.00;;
51248;SDS011;39642;47.556;18.728;2023-02-26T03:10:36;6.78;;;2.00;;
51248;SDS011;39642;47.556;18.728;2023-02-26T03:13:03;6.53;;;1.80;;
51248;SDS011;39642;47.556;18.728;2023-02-26T03:15:36;6.47;;;2.00;;
51248;SDS011;39642;47.556;18.728;2023-02-26T03:20:57;6.30;;;2.00;;
51248;SDS011;39642;47.556;18.728;2023-02-26T03:23:37;6.62;;;2.00;;
51248;SDS011;39642;47.556;18.728;2023-02-26T03:26:11;6.80;;;1.85;;
51248;SDS011;39642;47.556;18.728;2023-02-26T03:28:45;6.85;;;2.00;;
51248;SDS011;39642;47.556;18.728;2023-02-26T03:31:17;6.82;;;2.10;;
51248;SDS011;39642;47.556;18.728;2023-02-26T03:39:10;7.30;;;2.08;;
51248;SDS011;39642;47.556;18.728;2023-02-26T03:44:51;6.57;;;1.90;;
51248;SDS011;39642;47.556;18.728;2023-02-26T03:47:21;6.45;;;1.83;;
51248;SDS011;39642;47.556;18.728;2023-02-26T03:49:55;5.82;;;1.80;;
51248;SDS011;39642;47.556;18.728;2023-02-26T03:52:36;5.90;;;2.00;;
51248;SDS011;39642;47.556;18.728;2023-02-26T03:55:15;7.30;;;2.20;;
51248;SDS011;39642;47.556;18.728;2023-02-26T03:57:55;6.00;;;1.85;;
51248;SDS011;39642;47.556;18.728;2023-02-26T04:00:21;7.07;;;2.10;;
51248;SDS011;39642;47.556;18.728;2023-02-26T04:02:58;7.00;;;2.05;;
51248;SDS011;39642;47.556;18.728;2023-02-26T04:05:34;6.82;;;1.92;;
51248;SDS011;39642;47.556;18.728;2023-02-26T04:08:02;6.43;;;2.00;;
51248;SDS011;39642;47.556;18.728;2023-02-26T04:10:32;7.18;;;1.98;;
51248;SDS011;39642;47.556;18.728;2023-02-26T04:13:02;7.12;;;2.00;;
51248;SDS011;39642;47.556;18.728;2023-02-26T04:15:28;5.95;;;1.90;;
51248;SDS011;39642;47.556;18.728;2023-02-26T04:17:54;5.95;;;1.90;;
51248;SDS011;39642;47.556;18.728;2023-02-26T04:20:20;7.15;;;2.10;;
51248;SDS011;39642;47.556;18.728;2023-02-26T04:22:46;6.40;;;2.00;;
51248;SDS011;39642;47.556;18.728;2023-02-26T04:25:12;6.97;;;2.00;;
51248;SDS011;39642;47.556;18.728;2023-02-26T04:27:38;7.35;;;2.25;;
51248;SDS011;39642;47.556;18.728;2023-02-26T04:30:04;6.82;;;2.00;;
51248;SDS011;39642;47.556;18.728;2023-02-26T04:32:31;6.72;;;1.90;;
51248;SDS011;39642;47.556;18.728;2023-02-26T04:34:57;6.78;;;2.03;;
51248;SDS011;39642;47.556;18.728;2023-02-26T04:37:22;5.25;;;1.80;;
51248;SDS011;39642;47.556;18.728;2023-02-26T04:39:48;6.18;;;1.90;;
51248;SDS011;39642;47.556;18.728;2023-02-26T04:42:14;8.27;;;2.20;;
51248;SDS011;39642;47.556;18.728;2023-02-26T04:44:40;7.62;;;2.10;;
51248;SDS011;39642;47.556;18.728;2023-02-26T04:47:06;7.35;;;2.10;;
51248;SDS011;39642;47.556;18.728;2023-02-26T04:49:32;5.60;;;1.80;;
51248;SDS011;39642;47.556;18.728;2023-02-26T04:51:58;6.10;;;1.90;;
51248;SDS011;39642;47.556;18.728;2023-02-26T04:54:23;6.75;;;2.10;;
51248;SDS011;39642;47.556;18.728;2023-02-26T04:56:49;6.40;;;2.05;;
51248;SDS011;39642;47.556;18.728;2023-02-26T04:59:15;7.45;;;2.37;;
51248;SDS011;39642;47.556;18.728;2023-02-26T05:01:41;7.12;;;2.10;;
51248;SDS011;39642;47.556;18.728;2023-02-26T05:04:07;8.50;;;2.30;;
51248;SDS011;39642;47.556;18.728;2023-02-26T05:06:33;7.12;;;2.20;;
51248;SDS011;39642;47.556;18.728;2023-02-26T05:08:59;6.25;;;2.10;;
51248;SDS011;39642;47.556;18.728;2023-02-26T05:11:25;6.72;;;2.12;;
51248;SDS011;39642;47.556;18.728;2023-02-26T05:13:51;6.07;;;1.90;;
51248;SDS011;39642;47.556;18.728;2023-02-26T05:16:17;7.20;;;2.00;;
51248;SDS011;39642;47.556;18.728;2023-02-26T05:18:43;7.05;;;2.00;;
51248;SDS011;39642;47.556;18.728;2023-02-26T05:21:09;6.62;;;2.10;;
51248;SDS011;39642;47.556;18.728;2023-02-26T05:23:35;7.78;;;2.22;;
51248;SDS011;39642;47.556;18.728;2023-02-26T05:26:00;7.28;;;2.28;;
51248;SDS011;39642;47.556;18.728;2023-02-26T05:28:26;5.97;;;1.90;;
51248;SDS011;39642;47.556;18.728;2023-02-26T05:30:54;7.18;;;2.35;;
51248;SDS011;39642;47.556;18.728;2023-02-26T05:33:20;7.53;;;2.20;;
51248;SDS011;39642;47.556;18.728;2023-02-26T05:35:46;7.47;;;2.40;;
51248;SDS011;39642;47.556;18.728;2023-02-26T05:38:13;6.82;;;2.20;;
51248;SDS011;39642;47.556;18.728;2023-02-26T05:40:40;6.60;;;2.17;;
51248;SDS011;39642;47.556;18.728;2023-02-26T05:43:05;7.45;;;2.37;;
51248;SDS011;39642;47.556;18.728;2023-02-26T05:45:31;7.43;;;2.05;;
51248;SDS011;39642;47.556;18.728;2023-02-26T05:47:57;6.15;;;2.00;;
51248;SDS011;39642;47.556;18.728;2023-02-26T05:50:23;5.68;;;1.98;;
51248;SDS011;39642;47.556;18.728;2023-02-26T05:52:49;7.12;;;2.30;;
51248;SDS011;39642;47.556;18.728;2023-02-26T05:55:15;6.72;;;2.12;;
51248;SDS011;39642;47.556;18.728;2023-02-26T05:57:41;8.27;;;2.20;;
51248;SDS011;39642;47.556;18.728;2023-02-26T06:00:08;6.87;;;2.10;;
51248;SDS011;39642;47.556;18.728;2023-02-26T06:02:34;7.03;;;2.17;;
51248;SDS011;39642;47.556;18.728;2023-02-26T06:05:00;6.90;;;2.15;;
51248;SDS011;39642;47.556;18.728;2023-02-26T06:07:26;6.93;;;2.05;;
51248;SDS011;39642;47.556;18.728;2023-02-26T06:09:51;7.53;;;2.30;;
51248;SDS011;39642;47.556;18.728;2023-02-26T06:12:17;7.12;;;2.42;;
51248;SDS011;39642;47.556;18.728;2023-02-26T06:14:43;7.60;;;2.35;;
51248;SDS011;39642;47.556;18.728;2023-02-26T06:17:09;7.45;;;2.20;;
51248;SDS011;39642;47.556;18.728;2023-02-26T06:19:35;6.68;;;2.20;;
51248;SDS011;39642;47.556;18.728;2023-02-26T06:22:02;7.05;;;2.30;;
51248;SDS011;39642;47.556;18.728;2023-02-26T06:24:28;8.25;;;2.50;;
51248;SDS011;39642;47.556;18.728;2023-02-26T06:26:54;7.65;;;2.37;;
51248;SDS011;39642;47.556;18.728;2023-02-26T06:29:20;7.70;;;2.37;;
51248;SDS011;39642;47.556;18.728;2023-02-26T06:31:46;7.80;;;2.30;;
51248;SDS011;39642;47.556;18.728;2023-02-26T06:34:12;7.47;;;2.30;;
51248;SDS011;39642;47.556;18.728;2023-02-26T06:36:38;7.20;;;2.40;;
51248;SDS011;39642;47.556;18.728;2023-02-26T06:39:03;7.12;;;2.33;;
51248;SDS011;39642;47.556;18.728;2023-02-26T06:41:29;7.93;;;2.22;;
51248;SDS011;39642;47.556;18.728;2023-02-26T06:43:55;7.50;;;2.45;;
51248;SDS011;39642;47.556;18.728;2023-02-26T06:46:21;6.85;;;2.40;;
51248;SDS011;39642;47.556;18.728;2023-02-26T06:48:47;7.25;;;2.20;;
51248;SDS011;39642;47.556;18.728;2023-02-26T06:51:13;7.22;;;2.17;;
51248;SDS011;39642;47.556;18.728;2023-02-26T06:53:39;8.10;;;2.47;;
51248;SDS011;39642;47.556;18.728;2023-02-26T06:56:04;7.22;;;2.42;;
51248;SDS011;39642;47.556;18.728;2023-02-26T06:58:31;7.78;;;2.40;;
51248;SDS011;39642;47.556;18.728;2023-02-26T07:00:56;7.85;;;2.33;;
51248;SDS011;39642;47.556;18.728;2023-02-26T07:03:22;8.50;;;2.40;;
51248;SDS011;39642;47.556;18.728;2023-02-26T07:05:48;6.55;;;2.17;;
51248;SDS011;39642;47.556;18.728;2023-02-26T07:08:14;7.47;;;2.25;;
51248;SDS011;39642;47.556;18.728;2023-02-26T07:10:41;7.85;;;2.25;;
51248;SDS011;39642;47.556;18.728;2023-02-26T07:13:10;8.18;;;2.35;;
51248;SDS011;39642;47.556;18.728;2023-02-26T07:15:36;7.72;;;2.30;;
51248;SDS011;39642;47.556;18.728;2023-02-26T07:18:02;6.43;;;2.28;;
51248;SDS011;39642;47.556;18.728;2023-02-26T07:20:28;7.05;;;2.25;;
51248;SDS011;39642;47.556;18.728;2023-02-26T07:22:54;7.22;;;2.17;;
51248;SDS011;39642;47.556;18.728;2023-02-26T07:25:20;7.15;;;2.12;;
51248;SDS011;39642;47.556;18.728;2023-02-26T07:27:46;7.43;;;2.20;;
51248;SDS011;39642;47.556;18.728;2023-02-26T07:30:12;7.47;;;2.05;;
51248;SDS011;39642;47.556;18.728;2023-02-26T07:32:38;7.50;;;2.20;;
51248;SDS011;39642;47.556;18.728;2023-02-26T07:35:05;8.38;;;2.37;;
51248;SDS011;39642;47.556;18.728;2023-02-26T07:37:31;6.55;;;2.12;;
51248;SDS011;39642;47.556;18.728;2023-02-26T07:39:57;7.05;;;2.20;;
51248;SDS011;39642;47.556;18.728;2023-02-26T07:42:23;8.20;;;2.37;;
51248;SDS011;39642;47.556;18.728;2023-02-26T07:44:49;7.10;;;2.35;;
51248;SDS011;39642;47.556;18.728;2023-02-26T07:47:15;6.75;;;2.10;;
51248;SDS011;39642;47.556;18.728;2023-02-26T07:49:42;7.75;;;2.33;;
51248;SDS011;39642;47.556;18.728;2023-02-26T07:52:08;7.10;;;2.30;;
51248;SDS011;39642;47.556;18.728;2023-02-26T07:54:34;6.25;;;2.03;;
51248;SDS011;39642;47.556;18.728;2023-02-26T07:57:01;7.05;;;2.35;;
51248;SDS011;39642;47.556;18.728;2023-02-26T07:59:28;6.35;;;2.22;;
51248;SDS011;39642;47.556;18.728;2023-02-26T08:01:54;6.57;;;2.28;;
51248;SDS011;39642;47.556;18.728;2023-02-26T08:04:20;6.65;;;2.10;;
51248;SDS011;39642;47.556;18.728;2023-02-26T08:06:46;8.90;;;2.50;;
51248;SDS011;39642;47.556;18.728;2023-02-26T08:09:12;7.57;;;2.25;;
51248;SDS011;39642;47.556;18.728;2023-02-26T08:11:38;7.70;;;2.25;;
51248;SDS011;39642;47.556;18.728;2023-02-26T08:14:05;5.85;;;2.00;;
51248;SDS011;39642;47.556;18.728;2023-02-26T08:16:31;6.37;;;2.10;;
51248;SDS011;39642;47.556;18.728;2023-02-26T08:18:57;8.02;;;2.50;;
51248;SDS011;39642;47.556;18.728;2023-02-26T08:21:23;6.78;;;2.20;;
51248;SDS011;39642;47.556;18.728;2023-02-26T08:23:49;6.72;;;2.00;;
51248;SDS011;39642;47.556;18.728;2023-02-26T08:26:17;6.97;;;2.12;;
51248;SDS011;39642;47.556;18.728;2023-02-26T08:28:43;7.70;;;2.20;;
51248;SDS011;39642;47.556;18.728;2023-02-26T08:31:10;6.35;;;1.90;;
51248;SDS011;39642;47.556;18.728;2023-02-26T08:33:38;6.75;;;2.03;;
51248;SDS011;39642;47.556;18.728;2023-02-26T08:36:04;7.30;;;2.25;;
51248;SDS011;39642;47.556;18.728;2023-02-26T08:38:31;6.10;;;1.77;;
51248;SDS011;39642;47.556;18.728;2023-02-26T08:40:57;8.60;;;2.28;;
51248;SDS011;39642;47.556;18.728;2023-02-26T08:43:23;6.40;;;2.20;;
51248;SDS011;39642;47.556;18.728;2023-02-26T08:45:53;6.87;;;2.00;;
51248;SDS011;39642;47.556;18.728;2023-02-26T08:48:19;6.85;;;2.20;;
51248;SDS011;39642;47.556;18.728;2023-02-26T08:50:46;6.15;;;2.00;;
51248;SDS011;39642;47.556;18.728;2023-02-26T08:53:13;6.30;;;1.92;;
51248;SDS011;39642;47.556;18.728;2023-02-26T08:55:39;7.87;;;2.28;;
51248;SDS011;39642;47.556;18.728;2023-02-26T08:58:05;7.05;;;2.10;;
51248;SDS011;39642;47.556;18.728;2023-02-26T09:00:32;6.30;;;2.03;;
51248;SDS011;39642;47.556;18.728;2023-02-26T09:02:58;6.75;;;2.30;;
51248;SDS011;39642;47.556;18.728;2023-02-26T09:05:24;7.43;;;2.20;;
51248;SDS011;39642;47.556;18.728;2023-02-26T09:07:50;6.32;;;1.90;;
51248;SDS011;39642;47.556;18.728;2023-02-26T09:10:16;7.10;;;2.10;;
51248;SDS011;39642;47.556;18.728;2023-02-26T09:12:42;7.07;;;2.10;;
51248;SDS011;39642;47.556;18.728;2023-02-26T09:15:09;6.60;;;2.25;;
51248;SDS011;39642;47.556;18.728;2023-02-26T09:17:36;7.18;;;2.25;;
51248;SDS011;39642;47.556;18.728;2023-02-26T09:20:03;7.32;;;2.40;;
51248;SDS011;39642;47.556;18.728;2023-02-26T09:22:29;7.80;;;2.20;;
51248;SDS011;39642;47.556;18.728;2023-02-26T09:24:55;8.15;;;2.35;;
51248;SDS011;39642;47.556;18.728;2023-02-26T09:27:21;7.93;;;2.35;;
51248;SDS011;39642;47.556;18.728;2023-02-26T09:29:47;7.40;;;2.30;;
51248;SDS011;39642;47.556;18.728;2023-02-26T09:32:13;8.60;;;2.70;;
51248;SDS011;39642;47.556;18.728;2023-02-26T09:34:39;8.98;;;2.40;;
51248;SDS011;39642;47.556;18.728;2023-02-26T09:37:06;9.43;;;2.92;;
51248;SDS011;39642;47.556;18.728;2023-02-26T09:39:33;9.50;;;2.50;;
51248;SDS011;39642;47.556;18.728;2023-02-26T09:42:50;9.13;;;2.75;;
51248;SDS011;39642;47.556;18.728;2023-02-26T09:45:02;7.90;;;2.20;;
51248;SDS011;39642;47.556;18.728;2023-02-26T09:47:36;7.32;;;2.22;;
51248;SDS011;39642;47.556;18.728;2023-02-26T09:53:12;9.48;;;2.40;;
51248;SDS011;39642;47.556;18.728;2023-02-26T09:55:44;8.40;;;2.40;;
51248;SDS011;39642;47.556;18.728;2023-02-26T09:58:15;9.77;;;2.60;;
51248;SDS011;39642;47.556;18.728;2023-02-26T10:08:26;7.90;;;2.50;;
51248;SDS011;39642;47.556;18.728;2023-02-26T10:11:15;8.63;;;2.30;;
51248;SDS011;39642;47.556;18.728;2023-02-26T10:13:52;7.80;;;2.37;;
51248;SDS011;39642;47.556;18.728;2023-02-26T10:16:26;8.18;;;2.62;;
51248;SDS011;39642;47.556;18.728;2023-02-26T10:18:59;8.00;;;2.25;;
51248;SDS011;39642;47.556;18.728;2023-02-26T10:21:38;8.05;;;2.40;;
51248;SDS011;39642;47.556;18.728;2023-02-26T10:24:21;8.02;;;2.40;;
51248;SDS011;39642;47.556;18.728;2023-02-26T10:26:54;8.88;;;2.25;;
51248;SDS011;39642;47.556;18.728;2023-02-26T10:29:37;7.10;;;2.40;;
51248;SDS011;39642;47.556;18.728;2023-02-26T10:34:57;7.60;;;2.20;;
51248;SDS011;39642;47.556;18.728;2023-02-26T10:37:37;8.13;;;2.37;;
51248;SDS011;39642;47.556;18.728;2023-02-26T10:42:52;7.68;;;2.45;;
51248;SDS011;39642;47.556;18.728;2023-02-26T10:48:22;6.85;;;2.10;;
51248;SDS011;39642;47.556;18.728;2023-02-26T10:50:51;8.30;;;2.40;;
51248;SDS011;39642;47.556;18.728;2023-02-26T10:53:21;7.90;;;2.33;;
51248;SDS011;39642;47.556;18.728;2023-02-26T10:56:06;8.00;;;2.30;;
51248;SDS011;39642;47.556;18.728;2023-02-26T10:58:36;7.97;;;2.25;;
51248;SDS011;39642;47.556;18.728;2023-02-26T11:01:03;7.68;;;2.30;;
51248;SDS011;39642;47.556;18.728;2023-02-26T11:03:38;7.50;;;2.22;;
51248;SDS011;39642;47.556;18.728;2023-02-26T11:06:07;7.45;;;2.17;;
51248;SDS011;39642;47.556;18.728;2023-02-26T11:08:38;8.15;;;2.45;;
51248;SDS011;39642;47.556;18.728;2023-02-26T11:11:07;7.18;;;2.30;;
51248;SDS011;39642;47.556;18.728;2023-02-26T11:13:35;7.62;;;2.12;;
51248;SDS011;39642;47.556;18.728;2023-02-26T11:16:40;7.65;;;2.20;;
51248;SDS011;39642;47.556;18.728;2023-02-26T11:18:57;7.15;;;2.20;;
51248;SDS011;39642;47.556;18.728;2023-02-26T11:21:28;6.90;;;2.28;;
51248;SDS011;39642;47.556;18.728;2023-02-26T11:24:11;7.97;;;2.40;;
51248;SDS011;39642;47.556;18.728;2023-02-26T11:26:42;7.60;;;2.10;;
51248;SDS011;39642;47.556;18.728;2023-02-26T11:29:13;7.00;;;2.00;;
51248;SDS011;39642;47.556;18.728;2023-02-26T11:31:42;8.15;;;2.17;;
51248;SDS011;39642;47.556;18.728;2023-02-26T11:34:08;7.20;;;2.10;;
51248;SDS011;39642;47.556;18.728;2023-02-26T11:36:38;7.82;;;2.28;;
51248;SDS011;39642;47.556;18.728;2023-02-26T11:39:16;7.80;;;2.37;;
51248;SDS011;39642;47.556;18.728;2023-02-26T11:41:46;7.50;;;2.30;;
51248;SDS011;39642;47.556;18.728;2023-02-26T11:44:15;7.50;;;2.17;;
51248;SDS011;39642;47.556;18.728;2023-02-26T11:46:45;6.95;;;2.10;;
51248;SDS011;39642;47.556;18.728;2023-02-26T11:49:16;8.18;;;2.20;;
51248;SDS011;39642;47.556;18.728;2023-02-26T11:51:45;8.15;;;2.35;;
51248;SDS011;39642;47.556;18.728;2023-02-26T11:54:22;7.18;;;2.12;;
51248;SDS011;39642;47.556;18.728;2023-02-26T11:56:49;7.47;;;2.17;;
51248;SDS011;39642;47.556;18.728;2023-02-26T11:59:17;6.85;;;2.20;;
51248;SDS011;39642;47.556;18.728;2023-02-26T12:01:43;6.32;;;2.00;;
51248;SDS011;39642;47.556;18.728;2023-02-26T12:04:10;7.35;;;2.20;;
51248;SDS011;39642;47.556;18.728;2023-02-26T12:06:38;7.60;;;2.03;;
51248;SDS011;39642;47.556;18.728;2023-02-26T12:09:05;7.87;;;2.10;;
51248;SDS011;39642;47.556;18.728;2023-02-26T12:11:42;7.35;;;2.30;;
51248;SDS011;39642;47.556;18.728;2023-02-26T12:19:33;7.68;;;2.50;;
51248;SDS011;39642;47.556;18.728;2023-02-26T12:39:29;6.07;;;2.10;;
51248;SDS011;39642;47.556;18.728;2023-02-26T12:45:20;7.82;;;2.33;;
51248;SDS011;39642;47.556;18.728;2023-02-26T12:48:01;6.37;;;2.12;;
51248;SDS011;39642;47.556;18.728;2023-02-26T12:58:58;6.50;;;2.03;;
51248;SDS011;39642;47.556;18.728;2023-02-26T13:06:57;6.65;;;1.95;;
51248;SDS011;39642;47.556;18.728;2023-02-26T13:12:14;6.87;;;2.30;;
51248;SDS011;39642;47.556;18.728;2023-02-26T13:20:23;7.28;;;2.10;;
51248;SDS011;39642;47.556;18.728;2023-02-26T13:22:58;8.38;;;2.37;;
51248;SDS011;39642;47.556;18.728;2023-02-26T13:26:10;8.10;;;2.22;;
51248;SDS011;39642;47.556;18.728;2023-02-26T13:28:38;6.32;;;2.10;;
51248;SDS011;39642;47.556;18.728;2023-02-26T13:31:16;7.25;;;2.15;;
51248;SDS011;39642;47.556;18.728;2023-02-26T13:33:45;6.45;;;2.17;;
51248;SDS011;39642;47.556;18.728;2023-02-26T13:36:14;7.55;;;2.50;;
51248;SDS011;39642;47.556;18.728;2023-02-26T13:52:24;8.35;;;2.33;;
51248;SDS011;39642;47.556;18.728;2023-02-26T13:54:52;7.22;;;2.30;;
51248;SDS011;39642;47.556;18.728;2023-02-26T13:59:56;8.10;;;2.28;;
51248;SDS011;39642;47.556;18.728;2023-02-26T14:02:36;7.82;;;2.20;;
51248;SDS011;39642;47.556;18.728;2023-02-26T14:05:30;7.40;;;2.33;;
51248;SDS011;39642;47.556;18.728;2023-02-26T14:10:36;6.72;;;2.25;;
51248;SDS011;39642;47.556;18.728;2023-02-26T14:13:14;7.50;;;2.20;;
51248;SDS011;39642;47.556;18.728;2023-02-26T14:24:04;8.38;;;2.47;;
51248;SDS011;39642;47.556;18.728;2023-02-26T14:26:37;8.30;;;2.40;;
51248;SDS011;39642;47.556;18.728;2023-02-26T14:29:12;7.65;;;2.37;;
51248;SDS011;39642;47.556;18.728;2023-02-26T14:34:14;8.85;;;2.80;;
51248;SDS011;39642;47.556;18.728;2023-02-26T14:36:52;7.97;;;2.28;;
51248;SDS011;39642;47.556;18.728;2023-02-26T14:39:35;7.87;;;2.30;;
51248;SDS011;39642;47.556;18.728;2023-02-26T14:42:03;7.90;;;2.42;;
51248;SDS011;39642;47.556;18.728;2023-02-26T14:44:33;8.20;;;2.50;;
51248;SDS011;39642;47.556;18.728;2023-02-26T14:47:03;8.90;;;2.50;;
51248;SDS011;39642;47.556;18.728;2023-02-26T14:49:31;8.80;;;2.70;;
51248;SDS011;39642;47.556;18.728;2023-02-26T14:53:06;8.63;;;2.78;;
51248;SDS011;39642;47.556;18.728;2023-02-26T15:24:26;8.05;;;2.55;;
51248;SDS011;39642;47.556;18.728;2023-02-26T15:26:54;7.68;;;2.60;;
51248;SDS011;39642;47.556;18.728;2023-02-26T15:29:28;9.02;;;2.85;;
51248;SDS011;39642;47.556;18.728;2023-02-26T15:32:04;8.65;;;2.65;;
51248;SDS011;39642;47.556;18.728;2023-02-26T15:34:41;9.57;;;2.95;;
51248;SDS011;39642;47.556;18.728;2023-02-26T15:37:22;9.35;;;2.70;;
51248;SDS011;39642;47.556;18.728;2023-02-26T15:39:51;9.80;;;2.80;;
51248;SDS011;39642;47.556;18.728;2023-02-26T15:42:18;8.68;;;2.90;;
51248;SDS011;39642;47.556;18.728;2023-02-26T15:44:46;10.38;;;3.40;;
51248;SDS011;39642;47.556;18.728;2023-02-26T15:47:14;11.32;;;3.60;;
51248;SDS011;39642;47.556;18.728;2023-02-26T15:49:45;11.18;;;3.65;;
51248;SDS011;39642;47.556;18.728;2023-02-26T15:52:14;10.50;;;3.87;;
51248;SDS011;39642;47.556;18.728;2023-02-26T15:54:43;10.93;;;3.78;;
51248;SDS011;39642;47.556;18.728;2023-02-26T15:57:12;11.02;;;3.83;;
51248;SDS011;39642;47.556;18.728;2023-02-26T15:59:44;10.68;;;3.70;;
51248;SDS011;39642;47.556;18.728;2023-02-26T16:02:17;9.90;;;3.60;;
51248;SDS011;39642;47.556;18.728;2023-02-26T16:04:45;11.18;;;4.03;;
51248;SDS011;39642;47.556;18.728;2023-02-26T16:07:12;11.10;;;4.00;;
51248;SDS011;39642;47.556;18.728;2023-02-26T16:09:39;10.90;;;3.85;;
51248;SDS011;39642;47.556;18.728;2023-02-26T16:14:50;10.75;;;4.15;;
51248;SDS011;39642;47.556;18.728;2023-02-26T16:17:27;12.20;;;4.05;;
51248;SDS011;39642;47.556;18.728;2023-02-26T16:19:56;11.18;;;4.20;;
51248;SDS011;39642;47.556;18.728;2023-02-26T16:22:26;11.75;;;4.37;;
51248;SDS011;39642;47.556;18.728;2023-02-26T16:25:07;11.82;;;4.47;;
51248;SDS011;39642;47.556;18.728;2023-02-26T16:27:47;11.73;;;4.47;;
51248;SDS011;39642;47.556;18.728;2023-02-26T16:30:18;11.43;;;4.32;;
51248;SDS011;39642;47.556;18.728;2023-02-26T16:32:49;11.82;;;4.40;;
51248;SDS011;39642;47.556;18.728;2023-02-26T16:35:19;10.80;;;4.32;;
51248;SDS011;39642;47.556;18.728;2023-02-26T16:37:50;12.93;;;4.50;;
51248;SDS011;39642;47.556;18.728;2023-02-26T16:45:22;11.07;;;4.22;;
51248;SDS011;39642;47.556;18.728;2023-02-26T16:48:00;11.60;;;4.32;;
51248;SDS011;39642;47.556;18.728;2023-02-26T16:50:32;11.82;;;4.65;;
51248;SDS011;39642;47.556;18.728;2023-02-26T16:55:29;12.23;;;4.70;;
51248;SDS011;39642;47.556;18.728;2023-02-26T16:57:58;10.52;;;3.87;;
51248;SDS011;39642;47.556;18.728;2023-02-26T17:00:28;12.13;;;4.32;;
51248;SDS011;39642;47.556;18.728;2023-02-26T17:02:58;11.43;;;4.10;;
51248;SDS011;39642;47.556;18.728;2023-02-26T17:05:34;10.95;;;3.95;;
51248;SDS011;39642;47.556;18.728;2023-02-26T17:08:08;12.57;;;4.60;;
51248;SDS011;39642;47.556;18.728;2023-02-26T17:10:48;10.40;;;4.15;;
51248;SDS011;39642;47.556;18.728;2023-02-26T17:13:33;12.10;;;4.28;;
51248;SDS011;39642;47.556;18.728;2023-02-26T17:16:00;10.57;;;3.85;;
51248;SDS011;39642;47.556;18.728;2023-02-26T17:18:28;10.45;;;3.85;;
51248;SDS011;39642;47.556;18.728;2023-02-26T17:20:55;11.30;;;4.18;;
51248;SDS011;39642;47.556;18.728;2023-02-26T17:23:24;9.63;;;3.50;;
51248;SDS011;39642;47.556;18.728;2023-02-26T17:25:53;10.52;;;4.03;;
51248;SDS011;39642;47.556;18.728;2023-02-26T17:28:22;10.48;;;4.00;;
51248;SDS011;39642;47.556;18.728;2023-02-26T17:30:50;10.60;;;3.80;;
51248;SDS011;39642;47.556;18.728;2023-02-26T17:33:17;12.25;;;4.20;;
51248;SDS011;39642;47.556;18.728;2023-02-26T17:35:43;10.52;;;3.87;;
51248;SDS011;39642;47.556;18.728;2023-02-26T17:38:10;11.20;;;3.87;;
51248;SDS011;39642;47.556;18.728;2023-02-26T17:40:43;10.43;;;3.70;;
51248;SDS011;39642;47.556;18.728;2023-02-26T17:43:11;11.10;;;3.62;;
51248;SDS011;39642;47.556;18.728;2023-02-26T17:45:38;9.60;;;3.80;;
51248;SDS011;39642;47.556;18.728;2023-02-26T17:48:05;11.10;;;3.45;;
51248;SDS011;39642;47.556;18.728;2023-02-26T17:53:11;9.77;;;3.60;;
51248;SDS011;39642;47.556;18.728;2023-02-26T17:55:38;10.43;;;3.60;;
51248;SDS011;39642;47.556;18.728;2023-02-26T17:58:06;9.40;;;3.40;;
51248;SDS011;39642;47.556;18.728;2023-02-26T18:00:37;10.37;;;3.63;;